PWSweather.com
Personal Weather Stations
Station Observations
LOGATEC1
LogatecSI

LogatecSI

Lat: 45.9084282, Lon: 14.2029696

Elevation: 1584

Station Type: TFA Primus solar

Latest ConditionsUpdated 7:42:13 PM GMT+01:01 Tuesday, Nov 12, 2019
Currently Today's Max Today's Min Today's Average
Temperature 43.2°F6.2°C 43.2°F6.2°C 41.0°F5.0°C 41.8°F5.4°C
Dew Point 41.5°F5.3°C 41.5°F5.3°C 39.3°F4.1°C 40.0°F4.4°C
Winds 4.4 mph N7.1 kmh N 6.2 mph -10.0 kmh - - 2.0 mph 3.2 kmh
Wind Gusts 9.0 mph14.5 kmh 11.7 mph18.8 kmh - -
Humidity 94% 94% 93% 94%
Pressure 29.52 in999.7 mb 29.82 in1009.8 mb 29.51 in999.3 mb -
Precipitation - 1.06 in26.9 mm - -
Hour Temp Dew Point Humidity Winds Wind Gusts Pressure Precip Precip Rate Daily Precip Total
07:42 PM 43.2°F6.2°C 41.5°F5.3°C 94% 4.4 mph N7.1 kmh N 9.0 mph14.5 kmh 29.52 in999.7 mb 0.00 in0.0 mm 0.00 in0.0 mm 1.06 in26.9 mm
07:37 PM 43.2°F6.2°C 41.5°F5.3°C 94% 2.7 mph NW4.3 kmh NW 8.7 mph14.0 kmh 29.52 in999.7 mb 0.02 in0.5 mm 0.00 in0.0 mm 1.06 in26.9 mm
07:32 PM 43.2°F6.2°C 41.5°F5.3°C 94% 3.1 mph N5.0 kmh N 6.8 mph10.9 kmh 29.52 in999.7 mb 0.02 in0.5 mm 0.00 in0.0 mm 1.06 in26.9 mm
07:26 PM 43.2°F6.2°C 41.5°F5.3°C 94% 1.4 mph 2.3 kmh 10.4 mph16.7 kmh 29.52 in999.7 mb 0.02 in0.5 mm 0.00 in0.0 mm 1.06 in26.9 mm
07:21 PM 43.2°F6.2°C 41.5°F5.3°C 94% 2.2 mph N3.5 kmh N 10.4 mph16.7 kmh 29.53 in1000.0 mb 0.02 in0.5 mm 0.00 in0.0 mm 1.06 in26.9 mm
07:16 PM 43.2°F6.2°C 41.5°F5.3°C 94% 3.2 mph N5.1 kmh N 6.8 mph10.9 kmh 29.53 in1000.0 mb 0.02 in0.5 mm 0.00 in0.0 mm 1.06 in26.9 mm
07:11 PM 43.2°F6.2°C 41.5°F5.3°C 94% 2.0 mph N3.2 kmh N 10.4 mph16.7 kmh 29.53 in1000.0 mb 0.02 in0.5 mm 0.00 in0.0 mm 1.06 in26.9 mm
07:06 PM 43.2°F6.2°C 41.5°F5.3°C 94% 3.4 mph N5.5 kmh N 10.4 mph16.7 kmh 29.52 in999.7 mb 0.04 in1.0 mm 0.00 in0.0 mm 1.06 in26.9 mm
07:01 PM 43.2°F6.2°C 41.5°F5.3°C 94% 3.0 mph N4.8 kmh N 10.4 mph16.7 kmh 29.52 in999.7 mb 0.04 in1.0 mm 0.00 in0.0 mm 1.06 in26.9 mm
06:56 PM 43.2°F6.2°C 41.5°F5.3°C 94% 2.6 mph N4.2 kmh N 8.1 mph13.0 kmh 29.52 in999.7 mb 0.04 in1.0 mm 0.00 in0.0 mm 1.06 in26.9 mm
06:51 PM 43.2°F6.2°C 41.5°F5.3°C 94% 2.4 mph W3.9 kmh W 8.1 mph13.0 kmh 29.52 in999.7 mb 0.04 in1.0 mm 0.00 in0.0 mm 1.06 in26.9 mm
06:46 PM 43.2°F6.2°C 41.5°F5.3°C 94% 2.1 mph NW3.4 kmh NW 6.5 mph10.5 kmh 29.52 in999.7 mb 0.04 in1.0 mm 0.00 in0.0 mm 1.06 in26.9 mm
06:41 PM 43.0°F6.1°C 41.3°F5.2°C 94% 1.6 mph NNW2.6 kmh NNW 6.5 mph10.5 kmh 29.51 in999.3 mb 0.04 in1.0 mm 0.24 in6.1 mm 1.06 in26.9 mm
06:36 PM 43.2°F6.2°C 41.5°F5.3°C 94% 1.8 mph WNW2.9 kmh WNW 9.5 mph15.3 kmh 29.52 in999.7 mb 0.02 in0.5 mm 0.00 in0.0 mm 1.05 in26.7 mm
06:31 PM 43.0°F6.1°C 41.3°F5.2°C 94% 3.2 mph NE5.1 kmh NE 9.5 mph15.3 kmh 29.52 in999.7 mb 0.02 in0.5 mm 0.00 in0.0 mm 1.05 in26.7 mm
06:26 PM 43.0°F6.1°C 41.3°F5.2°C 94% 2.2 mph N3.5 kmh N 7.0 mph11.3 kmh 29.52 in999.7 mb 0.02 in0.5 mm 0.00 in0.0 mm 1.05 in26.7 mm
06:21 PM 43.0°F6.1°C 41.3°F5.2°C 94% 1.8 mph ENE2.9 kmh ENE 7.0 mph11.3 kmh 29.52 in999.7 mb 0.02 in0.5 mm 0.00 in0.0 mm 1.05 in26.7 mm
06:15 PM 43.0°F6.1°C 41.3°F5.2°C 94% 2.5 mph NW4.0 kmh NW 6.5 mph10.5 kmh 29.52 in999.7 mb 0.02 in0.5 mm 0.00 in0.0 mm 1.05 in26.7 mm
06:11 PM 43.0°F6.1°C 41.3°F5.2°C 94% 2.3 mph NW3.7 kmh NW 8.7 mph14.0 kmh 29.52 in999.7 mb 0.02 in0.5 mm 0.20 in5.1 mm 1.05 in26.7 mm
06:05 PM 42.8°F6.0°C 41.1°F5.1°C 94% 4.3 mph NNE6.9 kmh NNE 8.7 mph14.0 kmh 29.51 in999.3 mb 0.00 in0.0 mm 0.00 in0.0 mm 1.03 in26.2 mm
06:00 PM 42.8°F6.0°C 41.1°F5.1°C 94% 3.6 mph N5.8 kmh N 6.8 mph10.9 kmh 29.51 in999.3 mb 0.02 in0.5 mm 0.00 in0.0 mm 1.03 in26.2 mm
05:55 PM 42.8°F6.0°C 41.1°F5.1°C 94% 1.8 mph N2.9 kmh N 7.0 mph11.3 kmh 29.52 in999.7 mb 0.02 in0.5 mm 0.00 in0.0 mm 1.03 in26.2 mm
05:50 PM 42.8°F6.0°C 41.1°F5.1°C 94% 3.6 mph NNE5.8 kmh NNE 7.0 mph11.3 kmh 29.51 in999.3 mb 0.02 in0.5 mm 0.00 in0.0 mm 1.03 in26.2 mm
05:45 PM 42.8°F6.0°C 41.1°F5.1°C 94% 1.4 mph NNE2.3 kmh NNE 3.8 mph6.1 kmh 29.51 in999.3 mb 0.04 in1.0 mm 0.00 in0.0 mm 1.03 in26.2 mm
05:40 PM 42.8°F6.0°C 41.1°F5.1°C 94% 1.0 mph S1.6 kmh S 3.8 mph6.1 kmh 29.51 in999.3 mb 0.04 in1.0 mm 0.00 in0.0 mm 1.03 in26.2 mm
05:35 PM 42.8°F6.0°C 41.1°F5.1°C 94% 1.4 mph 2.3 kmh 5.1 mph8.2 kmh 29.51 in999.3 mb 0.06 in1.5 mm 0.00 in0.0 mm 1.03 in26.2 mm
05:30 PM 42.8°F6.0°C 41.1°F5.1°C 94% 1.1 mph WSW1.8 kmh WSW 6.0 mph9.7 kmh 29.52 in999.7 mb 0.10 in2.5 mm 0.00 in0.0 mm 1.03 in26.2 mm
05:25 PM 42.8°F6.0°C 41.1°F5.1°C 94% 2.2 mph N3.5 kmh N 6.0 mph9.7 kmh 29.51 in999.3 mb 0.11 in2.8 mm 0.00 in0.0 mm 1.03 in26.2 mm
05:20 PM 42.8°F6.0°C 41.1°F5.1°C 94% 1.5 mph 2.4 kmh 10.8 mph17.4 kmh 29.52 in999.7 mb 0.13 in3.3 mm 0.00 in0.0 mm 1.03 in26.2 mm
05:15 PM 42.8°F6.0°C 41.1°F5.1°C 94% 4.0 mph NE6.4 kmh NE 10.8 mph17.4 kmh 29.51 in999.3 mb 0.13 in3.3 mm 0.00 in0.0 mm 1.03 in26.2 mm
05:10 PM 42.8°F6.0°C 41.1°F5.1°C 94% 5.4 mph NNE8.7 kmh NNE 8.1 mph13.0 kmh 29.52 in999.7 mb 0.13 in3.3 mm 0.00 in0.0 mm 1.03 in26.2 mm
05:05 PM 42.8°F6.0°C 41.1°F5.1°C 94% 5.1 mph N8.2 kmh N 7.6 mph12.2 kmh 29.52 in999.7 mb 0.13 in3.3 mm 0.24 in6.1 mm 1.03 in26.2 mm
05:00 PM 42.8°F6.0°C 41.1°F5.1°C 94% 2.9 mph N4.7 kmh N 8.7 mph14.0 kmh 29.52 in999.7 mb 0.11 in2.8 mm 0.00 in0.0 mm 1.01 in25.7 mm
04:55 PM 42.8°F6.0°C 41.1°F5.1°C 94% 4.7 mph 7.6 kmh 8.7 mph14.0 kmh 29.52 in999.7 mb 0.11 in2.8 mm 0.00 in0.0 mm 1.01 in25.7 mm
04:50 PM 42.8°F6.0°C 41.1°F5.1°C 94% 2.9 mph NNE4.7 kmh NNE 7.6 mph12.2 kmh 29.53 in1000.0 mb 0.11 in2.8 mm 0.12 in3.0 mm 1.01 in25.7 mm
04:45 PM 42.8°F6.0°C 41.1°F5.1°C 94% 2.9 mph N4.7 kmh N 10.0 mph16.1 kmh 29.54 in1000.3 mb 0.10 in2.5 mm 0.12 in3.0 mm 0.99 in25.1 mm
04:40 PM 42.8°F6.0°C 41.1°F5.1°C 94% 5.1 mph N8.2 kmh N 10.0 mph16.1 kmh 29.54 in1000.3 mb 0.09 in2.3 mm 0.12 in3.0 mm 0.97 in24.6 mm
04:35 PM 42.8°F6.0°C 41.1°F5.1°C 94% 1.9 mph N3.1 kmh N 6.8 mph10.9 kmh 29.54 in1000.3 mb 0.08 in2.0 mm 0.20 in5.1 mm 0.95 in24.1 mm
04:29 PM 42.8°F6.0°C 41.1°F5.1°C 94% 2.9 mph S4.7 kmh S 6.8 mph10.9 kmh 29.54 in1000.3 mb 0.06 in1.5 mm 0.24 in6.1 mm 0.93 in23.6 mm
04:24 PM 42.7°F5.9°C 41.0°F5.0°C 94% 2.0 mph SW3.2 kmh SW 5.1 mph8.2 kmh 29.53 in1000.0 mb 0.04 in1.0 mm 0.24 in6.1 mm 0.91 in23.1 mm
04:19 PM 42.7°F5.9°C 41.0°F5.0°C 94% 3.1 mph WSW5.0 kmh WSW 5.4 mph8.7 kmh 29.53 in1000.0 mb 0.02 in0.5 mm 0.00 in0.0 mm 0.89 in22.6 mm
04:14 PM 42.7°F5.9°C 41.0°F5.0°C 94% 2.3 mph WSW3.7 kmh WSW 5.4 mph8.7 kmh 29.52 in999.7 mb 0.02 in0.5 mm 0.00 in0.0 mm 0.89 in22.6 mm
04:09 PM 42.7°F5.9°C 41.0°F5.0°C 94% 2.3 mph N3.7 kmh N 5.1 mph8.2 kmh 29.52 in999.7 mb 0.02 in0.5 mm 0.00 in0.0 mm 0.89 in22.6 mm
04:04 PM 42.7°F5.9°C 41.0°F5.0°C 94% 2.2 mph S3.5 kmh S 5.1 mph8.2 kmh 29.53 in1000.0 mb 0.04 in1.0 mm 0.00 in0.0 mm 0.89 in22.6 mm
03:59 PM 42.7°F5.9°C 41.0°F5.0°C 94% 1.2 mph W1.9 kmh W 4.1 mph6.6 kmh 29.53 in1000.0 mb 0.04 in1.0 mm 0.00 in0.0 mm 0.89 in22.6 mm
03:54 PM 42.7°F5.9°C 41.0°F5.0°C 94% 1.8 mph S2.9 kmh S 7.4 mph11.9 kmh 29.53 in1000.0 mb 0.06 in1.5 mm 0.00 in0.0 mm 0.89 in22.6 mm
03:49 PM 42.7°F5.9°C 41.0°F5.0°C 94% 3.5 mph NE5.6 kmh NE 7.4 mph11.9 kmh 29.53 in1000.0 mb 0.06 in1.5 mm 0.00 in0.0 mm 0.89 in22.6 mm
03:44 PM 42.7°F5.9°C 41.0°F5.0°C 94% 2.6 mph W4.2 kmh W 8.1 mph13.0 kmh 29.53 in1000.0 mb 0.08 in2.0 mm 0.24 in6.1 mm 0.89 in22.6 mm
03:39 PM 42.7°F5.9°C 41.0°F5.0°C 94% 1.1 mph 1.8 kmh 8.1 mph13.0 kmh 29.52 in999.7 mb 0.06 in1.5 mm 0.00 in0.0 mm 0.87 in22.1 mm
03:34 PM 42.7°F5.9°C 41.0°F5.0°C 94% 3.8 mph NE6.1 kmh NE 7.0 mph11.3 kmh 29.53 in1000.0 mb 0.06 in1.5 mm 0.00 in0.0 mm 0.87 in22.1 mm
03:29 PM 42.7°F5.9°C 41.0°F5.0°C 94% 3.2 mph NE5.1 kmh NE 8.1 mph13.0 kmh 29.52 in999.7 mb 0.08 in2.0 mm 0.00 in0.0 mm 0.87 in22.1 mm
03:24 PM 42.7°F5.9°C 41.0°F5.0°C 94% 6.2 mph N10.0 kmh N 8.1 mph13.0 kmh 29.53 in1000.0 mb 0.08 in2.0 mm 0.00 in0.0 mm 0.87 in22.1 mm
03:19 PM 42.7°F5.9°C 41.0°F5.0°C 94% 3.5 mph N5.6 kmh N 6.0 mph9.7 kmh 29.53 in1000.0 mb 0.08 in2.0 mm 0.00 in0.0 mm 0.87 in22.1 mm
03:14 PM 42.7°F5.9°C 41.0°F5.0°C 94% 0.6 mph NE1.0 kmh NE 5.4 mph8.7 kmh 29.54 in1000.3 mb 0.10 in2.5 mm 0.00 in0.0 mm 0.87 in22.1 mm
03:08 PM 42.5°F5.8°C 40.8°F4.9°C 94% 3.5 mph NNW5.6 kmh NNW 6.0 mph9.7 kmh 29.54 in1000.3 mb 0.10 in2.5 mm 0.24 in6.1 mm 0.87 in22.1 mm
03:03 PM 42.5°F5.8°C 40.8°F4.9°C 94% 2.6 mph 4.2 kmh 6.0 mph9.7 kmh 29.54 in1000.3 mb 0.08 in2.0 mm 0.00 in0.0 mm 0.86 in21.8 mm
02:58 PM 42.5°F5.8°C 40.8°F4.9°C 94% 1.4 mph NNW2.3 kmh NNW 6.0 mph9.7 kmh 29.55 in1000.7 mb 0.10 in2.5 mm 0.24 in6.1 mm 0.86 in21.8 mm
02:53 PM 42.5°F5.8°C 40.8°F4.9°C 94% 4.0 mph 6.4 kmh 7.4 mph11.9 kmh 29.56 in1001.0 mb 0.08 in2.0 mm 0.00 in0.0 mm 0.84 in21.3 mm
02:48 PM 42.5°F5.8°C 40.8°F4.9°C 94% 4.2 mph N6.8 kmh N 7.4 mph11.9 kmh 29.56 in1001.0 mb 0.10 in2.5 mm 0.24 in6.1 mm 0.84 in21.3 mm
02:43 PM 42.5°F5.8°C 40.8°F4.9°C 94% 4.1 mph N6.6 kmh N 6.8 mph10.9 kmh 29.56 in1001.0 mb 0.08 in2.0 mm 0.00 in0.0 mm 0.82 in20.8 mm
02:38 PM 42.5°F5.8°C 40.8°F4.9°C 94% 2.5 mph NNE4.0 kmh NNE 11.7 mph18.8 kmh 29.57 in1001.4 mb 0.09 in2.3 mm 0.00 in0.0 mm 0.82 in20.8 mm
02:33 PM 42.5°F5.8°C 40.8°F4.9°C 94% 5.1 mph N8.2 kmh N 11.7 mph18.8 kmh 29.57 in1001.4 mb 0.11 in2.8 mm 0.00 in0.0 mm 0.82 in20.8 mm
02:28 PM 42.5°F5.8°C 40.8°F4.9°C 94% 3.1 mph N5.0 kmh N 8.1 mph13.0 kmh 29.56 in1001.0 mb 0.11 in2.8 mm 0.00 in0.0 mm 0.80 in20.3 mm
02:23 PM 42.3°F5.7°C 40.6°F4.8°C 94% 4.2 mph NE6.8 kmh NE 8.1 mph13.0 kmh 29.57 in1001.4 mb 0.11 in2.8 mm 0.00 in0.0 mm 0.80 in20.3 mm
02:18 PM 42.3°F5.7°C 40.6°F4.8°C 94% 1.8 mph NE2.9 kmh NE 8.1 mph13.0 kmh 29.57 in1001.4 mb 0.11 in2.8 mm 0.00 in0.0 mm 0.80 in20.3 mm
02:12 PM 42.3°F5.7°C 40.6°F4.8°C 94% 2.0 mph E3.2 kmh E 8.1 mph13.0 kmh 29.58 in1001.7 mb 0.11 in2.8 mm 0.00 in0.0 mm 0.78 in19.8 mm
02:07 PM 42.3°F5.7°C 40.6°F4.8°C 94% 2.4 mph N3.9 kmh N 7.0 mph11.3 kmh 29.58 in1001.7 mb 0.11 in2.8 mm 0.00 in0.0 mm 0.78 in19.8 mm
02:02 PM 42.1°F5.6°C 40.4°F4.7°C 94% 3.2 mph NE5.1 kmh NE 7.0 mph11.3 kmh 29.58 in1001.7 mb 0.11 in2.8 mm 0.02 in0.5 mm 0.78 in19.8 mm
01:57 PM 42.1°F5.6°C 40.4°F4.7°C 94% 2.8 mph NNE4.5 kmh NNE 7.0 mph11.3 kmh 29.58 in1001.7 mb 0.09 in2.3 mm 0.00 in0.0 mm 0.76 in19.3 mm
01:52 PM 42.1°F5.6°C 40.4°F4.7°C 94% 1.5 mph N2.4 kmh N 8.1 mph13.0 kmh 29.58 in1001.7 mb 0.13 in3.3 mm 0.24 in6.1 mm 0.76 in19.3 mm
01:47 PM 42.1°F5.6°C 40.4°F4.7°C 94% 2.1 mph N3.4 kmh N 8.1 mph13.0 kmh 29.58 in1001.7 mb 0.11 in2.8 mm 0.00 in0.0 mm 0.74 in18.8 mm
01:42 PM 41.9°F5.5°C 40.2°F4.6°C 94% 2.1 mph N3.4 kmh N 5.7 mph9.2 kmh 29.58 in1001.7 mb 0.11 in2.8 mm 0.12 in3.0 mm 0.74 in18.8 mm
01:37 PM 42.1°F5.6°C 40.4°F4.7°C 94% 1.1 mph N1.8 kmh N 5.1 mph8.2 kmh 29.58 in1001.7 mb 0.10 in2.5 mm 0.24 in6.1 mm 0.72 in18.3 mm
01:32 PM 41.9°F5.5°C 40.2°F4.6°C 94% 1.1 mph 1.8 kmh 4.4 mph7.1 kmh 29.59 in1002.0 mb 0.08 in2.0 mm 0.00 in0.0 mm 0.70 in17.8 mm
01:27 PM 41.9°F5.5°C 40.2°F4.6°C 94% 0.8 mph 1.3 kmh 4.1 mph6.6 kmh 29.59 in1002.0 mb 0.08 in2.0 mm 0.00 in0.0 mm 0.68 in17.3 mm
01:22 PM 41.9°F5.5°C 40.2°F4.6°C 94% 1.5 mph N2.4 kmh N 4.1 mph6.6 kmh 29.59 in1002.0 mb 0.08 in2.0 mm 0.00 in0.0 mm 0.68 in17.3 mm
01:17 PM 41.9°F5.5°C 40.2°F4.6°C 94% 0.7 mph NNW1.1 kmh NNW 7.0 mph11.3 kmh 29.58 in1001.7 mb 0.08 in2.0 mm 0.24 in6.1 mm 0.68 in17.3 mm
01:12 PM 41.9°F5.5°C 40.2°F4.6°C 94% 3.1 mph N5.0 kmh N 9.0 mph14.5 kmh 29.58 in1001.7 mb 0.06 in1.5 mm 0.00 in0.0 mm 0.67 in17.0 mm
01:07 PM 41.9°F5.5°C 40.2°F4.6°C 94% 2.3 mph N3.7 kmh N 9.0 mph14.5 kmh 29.58 in1001.7 mb 0.08 in2.0 mm 0.00 in0.0 mm 0.67 in17.0 mm
01:02 PM 41.9°F5.5°C 40.2°F4.6°C 94% 3.0 mph NNE4.8 kmh NNE 7.6 mph12.2 kmh 29.59 in1002.0 mb 0.08 in2.0 mm 0.02 in0.5 mm 0.67 in17.0 mm
12:56 PM 41.9°F5.5°C 40.2°F4.6°C 94% 2.7 mph N4.3 kmh N 4.6 mph7.4 kmh 29.60 in1002.4 mb 0.06 in1.5 mm 0.00 in0.0 mm 0.63 in16.0 mm
12:51 PM 41.9°F5.5°C 40.2°F4.6°C 94% 2.5 mph N4.0 kmh N 4.6 mph7.4 kmh 29.60 in1002.4 mb 0.06 in1.5 mm 0.00 in0.0 mm 0.63 in16.0 mm
12:46 PM 41.9°F5.5°C 40.2°F4.6°C 94% 2.2 mph NNE3.5 kmh NNE 9.5 mph15.3 kmh 29.60 in1002.4 mb 0.06 in1.5 mm 0.00 in0.0 mm 0.63 in16.0 mm
12:41 PM 41.9°F5.5°C 40.2°F4.6°C 94% 2.4 mph E3.9 kmh E 9.5 mph15.3 kmh 29.61 in1002.7 mb 0.08 in2.0 mm 0.00 in0.0 mm 0.63 in16.0 mm
12:36 PM 41.9°F5.5°C 40.2°F4.6°C 94% 2.9 mph NNW4.7 kmh NNW 6.8 mph10.9 kmh 29.62 in1003.0 mb 0.08 in2.0 mm 0.00 in0.0 mm 0.63 in16.0 mm
12:31 PM 41.9°F5.5°C 40.2°F4.6°C 94% 1.9 mph N3.1 kmh N 11.4 mph18.3 kmh 29.62 in1003.0 mb 0.08 in2.0 mm 0.24 in6.1 mm 0.63 in16.0 mm
12:26 PM 41.9°F5.5°C 40.2°F4.6°C 94% 5.1 mph NNE8.2 kmh NNE 11.4 mph18.3 kmh 29.62 in1003.0 mb 0.06 in1.5 mm 0.00 in0.0 mm 0.61 in15.5 mm
12:21 PM 41.8°F5.4°C 40.1°F4.5°C 94% 1.3 mph N2.1 kmh N 8.1 mph13.0 kmh 29.63 in1003.4 mb 0.06 in1.5 mm 0.00 in0.0 mm 0.61 in15.5 mm
12:16 PM 41.8°F5.4°C 40.1°F4.5°C 94% 3.5 mph NNE5.6 kmh NNE 7.0 mph11.3 kmh 29.63 in1003.4 mb 0.06 in1.5 mm 0.20 in5.1 mm 0.61 in15.5 mm
12:10 PM 41.8°F5.4°C 40.1°F4.5°C 94% 3.4 mph N5.5 kmh N 7.0 mph11.3 kmh 29.64 in1003.7 mb 0.04 in1.0 mm 0.00 in0.0 mm 0.59 in15.0 mm
12:05 PM 41.8°F5.4°C 40.1°F4.5°C 94% 2.4 mph N3.9 kmh N 6.8 mph10.9 kmh 29.64 in1003.7 mb 0.04 in1.0 mm 0.00 in0.0 mm 0.59 in15.0 mm
12:00 PM 41.6°F5.3°C 39.9°F4.4°C 94% 2.6 mph NNE4.2 kmh NNE 6.8 mph10.9 kmh 29.64 in1003.7 mb 0.04 in1.0 mm 0.02 in0.5 mm 0.59 in15.0 mm
11:55 AM 41.6°F5.3°C 39.9°F4.4°C 94% 0.9 mph SSW1.4 kmh SSW 4.4 mph7.1 kmh 29.65 in1004.1 mb 0.02 in0.5 mm 0.00 in0.0 mm 0.57 in14.5 mm
11:50 AM 41.6°F5.3°C 39.9°F4.4°C 94% 1.3 mph W2.1 kmh W 2.4 mph3.9 kmh 29.65 in1004.1 mb 0.02 in0.5 mm 0.00 in0.0 mm 0.57 in14.5 mm
11:45 AM 41.4°F5.2°C 39.7°F4.3°C 94% 0.7 mph S1.1 kmh S 2.7 mph4.3 kmh 29.65 in1004.1 mb 0.02 in0.5 mm 0.24 in6.1 mm 0.57 in14.5 mm
11:40 AM 41.4°F5.2°C 39.7°F4.3°C 94% 1.0 mph SW1.6 kmh SW 6.8 mph10.9 kmh 29.65 in1004.1 mb 0.00 in0.0 mm 0.00 in0.0 mm 0.55 in14.0 mm
11:35 AM 41.4°F5.2°C 39.7°F4.3°C 94% 0.9 mph NE1.4 kmh NE 6.8 mph10.9 kmh 29.65 in1004.1 mb 0.00 in0.0 mm 0.00 in0.0 mm 0.55 in14.0 mm
11:30 AM 41.4°F5.2°C 39.7°F4.3°C 94% 0.8 mph WNW1.3 kmh WNW 3.0 mph4.8 kmh 29.65 in1004.1 mb 0.00 in0.0 mm 0.00 in0.0 mm 0.55 in14.0 mm
11:25 AM 41.4°F5.2°C 39.7°F4.3°C 94% 1.0 mph SSE1.6 kmh SSE 4.4 mph7.1 kmh 29.65 in1004.1 mb 0.00 in0.0 mm 0.00 in0.0 mm 0.55 in14.0 mm
11:20 AM 41.4°F5.2°C 39.7°F4.3°C 94% 2.6 mph N4.2 kmh N 4.4 mph7.1 kmh 29.65 in1004.1 mb 0.00 in0.0 mm 0.00 in0.0 mm 0.55 in14.0 mm
11:15 AM 41.4°F5.2°C 39.7°F4.3°C 94% 1.2 mph NNW1.9 kmh NNW 3.8 mph6.1 kmh 29.65 in1004.1 mb 0.00 in0.0 mm 0.00 in0.0 mm 0.55 in14.0 mm
11:10 AM 41.4°F5.2°C 39.7°F4.3°C 94% 2.0 mph NNW3.2 kmh NNW 4.4 mph7.1 kmh 29.65 in1004.1 mb 0.00 in0.0 mm 0.00 in0.0 mm 0.55 in14.0 mm
11:05 AM 41.4°F5.2°C 39.7°F4.3°C 94% 2.0 mph NNW3.2 kmh NNW 6.5 mph10.5 kmh 29.65 in1004.1 mb 0.00 in0.0 mm 0.00 in0.0 mm 0.55 in14.0 mm
10:59 AM 41.2°F5.1°C 39.5°F4.2°C 94% 2.2 mph NNE3.5 kmh NNE 6.8 mph10.9 kmh 29.65 in1004.1 mb 0.00 in0.0 mm 0.00 in0.0 mm 0.55 in14.0 mm
10:54 AM 41.4°F5.2°C 39.7°F4.3°C 94% 3.0 mph N4.8 kmh N 6.8 mph10.9 kmh 29.65 in1004.1 mb 0.02 in0.5 mm 0.00 in0.0 mm 0.55 in14.0 mm
10:49 AM 41.2°F5.1°C 39.5°F4.2°C 94% 0.9 mph 1.4 kmh 7.0 mph11.3 kmh 29.65 in1004.1 mb 0.02 in0.5 mm 0.00 in0.0 mm 0.55 in14.0 mm
10:44 AM 41.2°F5.1°C 39.5°F4.2°C 94% 0.7 mph NNE1.1 kmh NNE 7.0 mph11.3 kmh 29.66 in1004.4 mb 0.02 in0.5 mm 0.00 in0.0 mm 0.55 in14.0 mm
10:39 AM 41.2°F5.1°C 39.5°F4.2°C 94% 2.2 mph NNE3.5 kmh NNE 7.0 mph11.3 kmh 29.65 in1004.1 mb 0.02 in0.5 mm 0.00 in0.0 mm 0.55 in14.0 mm
10:34 AM 41.2°F5.1°C 39.5°F4.2°C 94% 2.7 mph N4.3 kmh N 6.5 mph10.5 kmh 29.66 in1004.4 mb 0.02 in0.5 mm 0.00 in0.0 mm 0.55 in14.0 mm
10:29 AM 41.2°F5.1°C 39.5°F4.2°C 94% 1.2 mph N1.9 kmh N 7.4 mph11.9 kmh 29.66 in1004.4 mb 0.02 in0.5 mm 0.00 in0.0 mm 0.55 in14.0 mm
10:24 AM 41.2°F5.1°C 39.5°F4.2°C 94% 2.4 mph 3.9 kmh 7.6 mph12.2 kmh 29.66 in1004.4 mb 0.02 in0.5 mm 0.00 in0.0 mm 0.55 in14.0 mm
10:19 AM 41.4°F5.2°C 39.7°F4.3°C 94% 3.5 mph N5.6 kmh N 9.5 mph15.3 kmh 29.66 in1004.4 mb 0.02 in0.5 mm 0.00 in0.0 mm 0.55 in14.0 mm
10:14 AM 41.4°F5.2°C 39.7°F4.3°C 94% 1.9 mph NNW3.1 kmh NNW 11.4 mph18.3 kmh 29.66 in1004.4 mb 0.02 in0.5 mm 0.00 in0.0 mm 0.55 in14.0 mm
10:09 AM 41.4°F5.2°C 39.7°F4.3°C 94% 3.8 mph N6.1 kmh N 11.4 mph18.3 kmh 29.67 in1004.7 mb 0.02 in0.5 mm 0.00 in0.0 mm 0.55 in14.0 mm
10:04 AM 41.4°F5.2°C 39.7°F4.3°C 94% 6.2 mph 10.0 kmh 9.8 mph15.8 kmh 29.67 in1004.7 mb 0.02 in0.5 mm 0.00 in0.0 mm 0.55 in14.0 mm
09:59 AM 41.4°F5.2°C 39.7°F4.3°C 94% 4.7 mph NNE7.6 kmh NNE 9.5 mph15.3 kmh 29.68 in1005.1 mb 0.02 in0.5 mm 0.24 in6.1 mm 0.55 in14.0 mm
09:54 AM 41.4°F5.2°C 39.7°F4.3°C 94% 2.3 mph NNE3.7 kmh NNE 8.7 mph14.0 kmh 29.68 in1005.1 mb 0.00 in0.0 mm 0.00 in0.0 mm 0.53 in13.5 mm
09:49 AM 41.4°F5.2°C 39.7°F4.3°C 94% 5.3 mph NE8.5 kmh NE 8.7 mph14.0 kmh 29.68 in1005.1 mb 0.00 in0.0 mm 0.00 in0.0 mm 0.53 in13.5 mm
09:44 AM 41.2°F5.1°C 39.5°F4.2°C 94% 2.7 mph N4.3 kmh N 8.4 mph13.5 kmh 29.68 in1005.1 mb 0.00 in0.0 mm 0.00 in0.0 mm 0.53 in13.5 mm
09:39 AM 41.2°F5.1°C 39.5°F4.2°C 94% 2.0 mph NNE3.2 kmh NNE 8.4 mph13.5 kmh 29.68 in1005.1 mb 0.00 in0.0 mm 0.00 in0.0 mm 0.53 in13.5 mm
09:34 AM 41.2°F5.1°C 39.5°F4.2°C 94% 3.6 mph NE5.8 kmh NE 8.4 mph13.5 kmh 29.69 in1005.4 mb 0.00 in0.0 mm 0.00 in0.0 mm 0.53 in13.5 mm
09:28 AM 41.2°F5.1°C 39.5°F4.2°C 94% 2.9 mph NNE4.7 kmh NNE 8.4 mph13.5 kmh 29.69 in1005.4 mb 0.00 in0.0 mm 0.00 in0.0 mm 0.53 in13.5 mm
09:23 AM 41.2°F5.1°C 39.5°F4.2°C 94% 3.4 mph N5.5 kmh N 7.6 mph12.2 kmh 29.69 in1005.4 mb 0.00 in0.0 mm 0.00 in0.0 mm 0.53 in13.5 mm
09:18 AM 41.2°F5.1°C 39.5°F4.2°C 94% 3.2 mph N5.1 kmh N 7.6 mph12.2 kmh 29.70 in1005.8 mb 0.00 in0.0 mm 0.00 in0.0 mm 0.53 in13.5 mm
09:13 AM 41.2°F5.1°C 39.5°F4.2°C 94% 1.6 mph NNE2.6 kmh NNE 7.4 mph11.9 kmh 29.70 in1005.8 mb 0.00 in0.0 mm 0.00 in0.0 mm 0.53 in13.5 mm
09:08 AM 41.2°F5.1°C 39.5°F4.2°C 94% 2.5 mph N4.0 kmh N 6.8 mph10.9 kmh 29.70 in1005.8 mb 0.00 in0.0 mm 0.00 in0.0 mm 0.53 in13.5 mm
09:03 AM 41.2°F5.1°C 39.5°F4.2°C 94% 1.7 mph NNW2.7 kmh NNW 8.4 mph13.5 kmh 29.70 in1005.8 mb 0.00 in0.0 mm 0.00 in0.0 mm 0.53 in13.5 mm
08:58 AM 41.0°F5.0°C 39.3°F4.1°C 94% 3.4 mph 5.5 kmh 8.4 mph13.5 kmh 29.70 in1005.8 mb 0.00 in0.0 mm 0.00 in0.0 mm 0.53 in13.5 mm
08:53 AM 41.0°F5.0°C 39.3°F4.1°C 94% 3.7 mph N6.0 kmh N 6.0 mph9.7 kmh 29.70 in1005.8 mb 0.00 in0.0 mm 0.00 in0.0 mm 0.53 in13.5 mm
08:48 AM 41.0°F5.0°C 39.3°F4.1°C 94% 2.6 mph N4.2 kmh N 5.1 mph8.2 kmh 29.70 in1005.8 mb 0.04 in1.0 mm 0.00 in0.0 mm 0.53 in13.5 mm
08:43 AM 41.0°F5.0°C 39.3°F4.1°C 94% 1.7 mph 2.7 kmh 4.1 mph6.6 kmh 29.70 in1005.8 mb 0.04 in1.0 mm 0.00 in0.0 mm 0.53 in13.5 mm
08:38 AM 41.0°F5.0°C 39.3°F4.1°C 94% 1.2 mph 1.9 kmh 5.7 mph9.2 kmh 29.70 in1005.8 mb 0.04 in1.0 mm 0.00 in0.0 mm 0.53 in13.5 mm
08:33 AM 41.0°F5.0°C 39.3°F4.1°C 94% 1.2 mph NW1.9 kmh NW 7.6 mph12.2 kmh 29.71 in1006.1 mb 0.04 in1.0 mm 0.00 in0.0 mm 0.53 in13.5 mm
08:28 AM 41.0°F5.0°C 39.3°F4.1°C 94% 4.1 mph NE6.6 kmh NE 6.8 mph10.9 kmh 29.70 in1005.8 mb 0.04 in1.0 mm 0.00 in0.0 mm 0.53 in13.5 mm
08:22 AM 41.0°F5.0°C 39.3°F4.1°C 94% 3.4 mph N5.5 kmh N 5.4 mph8.7 kmh 29.71 in1006.1 mb 0.04 in1.0 mm 0.00 in0.0 mm 0.53 in13.5 mm
08:17 AM 41.0°F5.0°C 39.3°F4.1°C 94% 1.6 mph NNE2.6 kmh NNE 5.7 mph9.2 kmh 29.70 in1005.8 mb 0.08 in2.0 mm 0.00 in0.0 mm 0.53 in13.5 mm
08:12 AM 41.0°F5.0°C 39.3°F4.1°C 94% 2.6 mph N4.2 kmh N 5.7 mph9.2 kmh 29.71 in1006.1 mb 0.08 in2.0 mm 0.00 in0.0 mm 0.53 in13.5 mm
08:07 AM 41.0°F5.0°C 39.3°F4.1°C 94% 1.8 mph N2.9 kmh N 4.1 mph6.6 kmh 29.70 in1005.8 mb 0.08 in2.0 mm 0.00 in0.0 mm 0.53 in13.5 mm
08:02 AM 41.0°F5.0°C 39.3°F4.1°C 94% 1.6 mph N2.6 kmh N 3.8 mph6.1 kmh 29.71 in1006.1 mb 0.08 in2.0 mm 0.00 in0.0 mm 0.53 in13.5 mm
07:57 AM 41.0°F5.0°C 39.3°F4.1°C 94% 0.7 mph ESE1.1 kmh ESE 1.9 mph3.1 kmh 29.71 in1006.1 mb 0.08 in2.0 mm 0.00 in0.0 mm 0.53 in13.5 mm
07:52 AM 41.0°F5.0°C 39.3°F4.1°C 94% 0.6 mph NNE1.0 kmh NNE 4.6 mph7.4 kmh 29.72 in1006.4 mb 0.08 in2.0 mm 0.48 in12.2 mm 0.53 in13.5 mm
07:47 AM 41.0°F5.0°C 39.3°F4.1°C 94% 2.2 mph 3.5 kmh 8.1 mph13.0 kmh 29.71 in1006.1 mb 0.04 in1.0 mm 0.00 in0.0 mm 0.49 in12.4 mm
07:42 AM 41.0°F5.0°C 39.3°F4.1°C 94% 0.8 mph 1.3 kmh 8.1 mph13.0 kmh 29.71 in1006.1 mb 0.08 in2.0 mm 0.00 in0.0 mm 0.49 in12.4 mm
07:37 AM 41.0°F5.0°C 39.3°F4.1°C 94% 2.3 mph NNE3.7 kmh NNE 5.4 mph8.7 kmh 29.71 in1006.1 mb 0.08 in2.0 mm 0.00 in0.0 mm 0.49 in12.4 mm
07:32 AM 41.0°F5.0°C 39.3°F4.1°C 94% 0.9 mph 1.4 kmh 3.8 mph6.1 kmh 29.71 in1006.1 mb 0.08 in2.0 mm 0.00 in0.0 mm 0.49 in12.4 mm
07:27 AM 41.0°F5.0°C 39.3°F4.1°C 94% 0.7 mph NNW1.1 kmh NNW 4.6 mph7.4 kmh 29.71 in1006.1 mb 0.09 in2.3 mm 0.00 in0.0 mm 0.49 in12.4 mm
07:22 AM 41.0°F5.0°C 39.3°F4.1°C 94% 1.9 mph NNW3.1 kmh NNW 4.6 mph7.4 kmh 29.71 in1006.1 mb 0.09 in2.3 mm 0.12 in3.0 mm 0.49 in12.4 mm
07:17 AM 41.0°F5.0°C 39.3°F4.1°C 94% 0.9 mph NE1.4 kmh NE 5.7 mph9.2 kmh 29.71 in1006.1 mb 0.08 in2.0 mm 0.00 in0.0 mm 0.46 in11.7 mm
07:12 AM 41.0°F5.0°C 39.3°F4.1°C 94% 2.9 mph N4.7 kmh N 5.7 mph9.2 kmh 29.71 in1006.1 mb 0.08 in2.0 mm 0.00 in0.0 mm 0.46 in11.7 mm
07:07 AM 41.0°F5.0°C 39.3°F4.1°C 94% 1.9 mph N3.1 kmh N 3.0 mph4.8 kmh 29.71 in1006.1 mb 0.08 in2.0 mm 0.00 in0.0 mm 0.46 in11.7 mm
07:02 AM 41.0°F5.0°C 39.3°F4.1°C 94% 1.6 mph N2.6 kmh N 4.6 mph7.4 kmh 29.71 in1006.1 mb 0.09 in2.3 mm 0.00 in0.0 mm 0.46 in11.7 mm
06:57 AM 41.0°F5.0°C 39.3°F4.1°C 94% 2.5 mph N4.0 kmh N 4.6 mph7.4 kmh 29.71 in1006.1 mb 0.09 in2.3 mm 0.00 in0.0 mm 0.46 in11.7 mm
06:51 AM 41.0°F5.0°C 39.3°F4.1°C 94% 2.3 mph NNW3.7 kmh NNW 5.4 mph8.7 kmh 29.71 in1006.1 mb 0.09 in2.3 mm 0.00 in0.0 mm 0.46 in11.7 mm
06:46 AM 41.0°F5.0°C 39.3°F4.1°C 94% 1.6 mph N2.6 kmh N 5.4 mph8.7 kmh 29.71 in1006.1 mb 0.09 in2.3 mm 0.00 in0.0 mm 0.42 in10.7 mm
06:41 AM 41.0°F5.0°C 39.3°F4.1°C 94% 3.1 mph N5.0 kmh N 5.1 mph8.2 kmh 29.71 in1006.1 mb 0.09 in2.3 mm 0.00 in0.0 mm 0.42 in10.7 mm
06:36 AM 41.0°F5.0°C 39.3°F4.1°C 94% 1.0 mph 1.6 kmh 4.6 mph7.4 kmh 29.71 in1006.1 mb 0.09 in2.3 mm 0.00 in0.0 mm 0.42 in10.7 mm
06:31 AM 41.0°F5.0°C 39.3°F4.1°C 94% 2.8 mph N4.5 kmh N 5.1 mph8.2 kmh 29.72 in1006.4 mb 0.11 in2.8 mm 0.00 in0.0 mm 0.40 in10.2 mm
06:26 AM 41.2°F5.1°C 39.5°F4.2°C 94% 2.3 mph N3.7 kmh N 5.1 mph8.2 kmh 29.71 in1006.1 mb 0.13 in3.3 mm 0.00 in0.0 mm 0.40 in10.2 mm
06:21 AM 41.0°F5.0°C 39.3°F4.1°C 94% 0.6 mph NE1.0 kmh NE 6.0 mph9.7 kmh 29.72 in1006.4 mb 0.15 in3.8 mm 0.00 in0.0 mm 0.40 in10.2 mm
06:16 AM 41.0°F5.0°C 39.3°F4.1°C 94% 2.9 mph N4.7 kmh N 6.0 mph9.7 kmh 29.71 in1006.1 mb 0.15 in3.8 mm 0.00 in0.0 mm 0.38 in9.7 mm
06:11 AM 41.2°F5.1°C 39.5°F4.2°C 94% 1.1 mph N1.8 kmh N 4.1 mph6.6 kmh 29.72 in1006.4 mb 0.15 in3.8 mm 0.00 in0.0 mm 0.38 in9.7 mm
06:06 AM 41.2°F5.1°C 39.5°F4.2°C 94% 2.6 mph NW4.2 kmh NW 4.1 mph6.6 kmh 29.72 in1006.4 mb 0.15 in3.8 mm 0.00 in0.0 mm 0.36 in9.1 mm
06:01 AM 41.2°F5.1°C 39.5°F4.2°C 94% 1.4 mph 2.3 kmh 3.8 mph6.1 kmh 29.72 in1006.4 mb 0.15 in3.8 mm 0.00 in0.0 mm 0.36 in9.1 mm
05:56 AM 41.2°F5.1°C 39.5°F4.2°C 94% 2.5 mph N4.0 kmh N 3.8 mph6.1 kmh 29.73 in1006.8 mb 0.17 in4.3 mm 0.00 in0.0 mm 0.36 in9.1 mm
05:51 AM 41.2°F5.1°C 39.5°F4.2°C 94% 0.6 mph 1.0 kmh 2.4 mph3.9 kmh 29.73 in1006.8 mb 0.17 in4.3 mm 0.20 in5.1 mm 0.36 in9.1 mm
05:45 AM 41.2°F5.1°C 39.5°F4.2°C 94% Calm Calm 2.4 mph3.9 kmh 29.73 in1006.8 mb 0.15 in3.8 mm 0.00 in0.0 mm 0.32 in8.1 mm
05:40 AM 41.2°F5.1°C 39.5°F4.2°C 94% 0.7 mph 1.1 kmh 2.4 mph3.9 kmh 29.73 in1006.8 mb 0.19 in4.8 mm 0.00 in0.0 mm 0.32 in8.1 mm
05:35 AM 41.2°F5.1°C 39.5°F4.2°C 94% 0.6 mph 1.0 kmh 2.7 mph4.3 kmh 29.73 in1006.8 mb 0.21 in5.3 mm 0.00 in0.0 mm 0.32 in8.1 mm
05:30 AM 41.0°F5.0°C 39.3°F4.1°C 94% 0.8 mph 1.3 kmh 2.7 mph4.3 kmh 29.73 in1006.8 mb 0.21 in5.3 mm 0.00 in0.0 mm 0.28 in7.1 mm
05:25 AM 41.2°F5.1°C 39.3°F4.1°C 93% 0.8 mph 1.3 kmh 1.7 mph2.7 kmh 29.73 in1006.8 mb 0.21 in5.3 mm 0.00 in0.0 mm 0.27 in6.9 mm
05:20 AM 41.2°F5.1°C 39.5°F4.2°C 94% 0.5 mph 0.8 kmh 1.7 mph2.7 kmh 29.73 in1006.8 mb 0.21 in5.3 mm 0.24 in6.1 mm 0.25 in6.4 mm
05:15 AM 41.2°F5.1°C 39.5°F4.2°C 94% 0.9 mph NNW1.4 kmh NNW 1.7 mph2.7 kmh 29.73 in1006.8 mb 0.19 in4.8 mm 0.00 in0.0 mm 0.23 in5.8 mm
05:10 AM 41.2°F5.1°C 39.5°F4.2°C 94% 1.2 mph NNW1.9 kmh NNW 3.0 mph4.8 kmh 29.74 in1007.1 mb 0.19 in4.8 mm 0.00 in0.0 mm 0.23 in5.8 mm
05:05 AM 41.2°F5.1°C 39.5°F4.2°C 94% 1.2 mph NNW1.9 kmh NNW 3.0 mph4.8 kmh 29.73 in1006.8 mb 0.19 in4.8 mm 0.00 in0.0 mm 0.21 in5.3 mm
05:00 AM 41.2°F5.1°C 39.5°F4.2°C 94% 1.6 mph N2.6 kmh N 3.3 mph5.3 kmh 29.73 in1006.8 mb 0.19 in4.8 mm 0.02 in0.5 mm 0.21 in5.3 mm
04:55 AM 41.2°F5.1°C 39.5°F4.2°C 94% 1.0 mph SE1.6 kmh SE 3.3 mph5.3 kmh 29.73 in1006.8 mb 0.17 in4.3 mm 0.00 in0.0 mm 0.19 in4.8 mm
04:50 AM 41.2°F5.1°C 39.5°F4.2°C 94% 1.9 mph NNE3.1 kmh NNE 5.1 mph8.2 kmh 29.73 in1006.8 mb 0.17 in4.3 mm 0.24 in6.1 mm 0.19 in4.8 mm
04:45 AM 41.2°F5.1°C 39.5°F4.2°C 94% 0.9 mph NNE1.4 kmh NNE 5.1 mph8.2 kmh 29.73 in1006.8 mb 0.15 in3.8 mm 0.48 in12.2 mm 0.17 in4.3 mm
04:40 AM 41.2°F5.1°C 39.5°F4.2°C 94% 2.2 mph N3.5 kmh N 4.1 mph6.6 kmh 29.74 in1007.1 mb 0.11 in2.8 mm 0.36 in9.1 mm 0.13 in3.3 mm
04:35 AM 41.2°F5.1°C 39.5°F4.2°C 94% 0.5 mph WNW0.8 kmh WNW 3.8 mph6.1 kmh 29.75 in1007.5 mb 0.08 in2.0 mm 0.24 in6.1 mm 0.10 in2.5 mm
04:30 AM 41.2°F5.1°C 39.5°F4.2°C 94% 1.7 mph WNW2.7 kmh WNW 5.1 mph8.2 kmh 29.75 in1007.5 mb 0.06 in1.5 mm 0.24 in6.1 mm 0.08 in2.0 mm
04:25 AM 41.2°F5.1°C 39.5°F4.2°C 94% 2.5 mph WNW4.0 kmh WNW 5.1 mph8.2 kmh 29.75 in1007.5 mb 0.04 in1.0 mm 0.20 in5.1 mm 0.06 in1.5 mm
04:19 AM 41.2°F5.1°C 39.5°F4.2°C 94% 1.5 mph N2.4 kmh N 4.1 mph6.6 kmh 29.75 in1007.5 mb 0.02 in0.5 mm 0.00 in0.0 mm 0.04 in1.0 mm
04:14 AM 41.2°F5.1°C 39.5°F4.2°C 94% 2.3 mph N3.7 kmh N 3.3 mph5.3 kmh 29.74 in1007.1 mb 0.02 in0.5 mm 0.24 in6.1 mm 0.04 in1.0 mm
04:09 AM 41.2°F5.1°C 39.5°F4.2°C 94% Calm Calm 1.9 mph3.1 kmh 29.75 in1007.5 mb 0.00 in0.0 mm 0.00 in0.0 mm 0.02 in0.5 mm
04:04 AM 41.2°F5.1°C 39.5°F4.2°C 94% 0.5 mph NNW0.8 kmh NNW 3.0 mph4.8 kmh 29.75 in1007.5 mb 0.00 in0.0 mm 0.00 in0.0 mm 0.02 in0.5 mm
03:59 AM 41.2°F5.1°C 39.5°F4.2°C 94% 2.2 mph N3.5 kmh N 3.0 mph4.8 kmh 29.74 in1007.1 mb 0.00 in0.0 mm 0.00 in0.0 mm 0.02 in0.5 mm
03:54 AM 41.2°F5.1°C 39.5°F4.2°C 94% 1.7 mph N2.7 kmh N 2.7 mph4.3 kmh 29.75 in1007.5 mb 0.00 in0.0 mm 0.00 in0.0 mm 0.02 in0.5 mm
03:49 AM 41.2°F5.1°C 39.5°F4.2°C 94% 0.6 mph NNE1.0 kmh NNE 1.9 mph3.1 kmh 29.75 in1007.5 mb 0.00 in0.0 mm 0.00 in0.0 mm 0.02 in0.5 mm
03:44 AM 41.2°F5.1°C 39.5°F4.2°C 94% 1.2 mph NNE1.9 kmh NNE 3.8 mph6.1 kmh 29.75 in1007.5 mb 0.00 in0.0 mm 0.00 in0.0 mm 0.02 in0.5 mm
03:39 AM 41.2°F5.1°C 39.5°F4.2°C 94% 2.2 mph 3.5 kmh 3.8 mph6.1 kmh 29.75 in1007.5 mb 0.00 in0.0 mm 0.00 in0.0 mm 0.02 in0.5 mm
03:34 AM 41.2°F5.1°C 39.5°F4.2°C 94% 0.8 mph WNW1.3 kmh WNW 3.8 mph6.1 kmh 29.75 in1007.5 mb 0.00 in0.0 mm 0.00 in0.0 mm 0.02 in0.5 mm
03:29 AM 41.4°F5.2°C 39.7°F4.3°C 94% 0.7 mph NW1.1 kmh NW 2.7 mph4.3 kmh 29.75 in1007.5 mb 0.00 in0.0 mm 0.00 in0.0 mm 0.02 in0.5 mm
03:24 AM 41.2°F5.1°C 39.5°F4.2°C 94% 0.8 mph NW1.3 kmh NW 3.0 mph4.8 kmh 29.76 in1007.8 mb 0.00 in0.0 mm 0.00 in0.0 mm 0.02 in0.5 mm
03:18 AM 41.2°F5.1°C 39.3°F4.1°C 93% 1.0 mph 1.6 kmh 3.0 mph4.8 kmh 29.76 in1007.8 mb 0.00 in0.0 mm 0.00 in0.0 mm 0.02 in0.5 mm
03:14 AM 41.2°F5.1°C 39.5°F4.2°C 94% 0.6 mph 1.0 kmh 3.0 mph4.8 kmh 29.76 in1007.8 mb 0.00 in0.0 mm 0.00 in0.0 mm 0.02 in0.5 mm
03:08 AM 41.2°F5.1°C 39.5°F4.2°C 94% 1.2 mph N1.9 kmh N 3.3 mph5.3 kmh 29.76 in1007.8 mb 0.00 in0.0 mm 0.00 in0.0 mm 0.02 in0.5 mm
03:03 AM 41.2°F5.1°C 39.5°F4.2°C 94% 2.1 mph N3.4 kmh N 3.3 mph5.3 kmh 29.76 in1007.8 mb 0.00 in0.0 mm 0.00 in0.0 mm 0.02 in0.5 mm
02:58 AM 41.2°F5.1°C 39.5°F4.2°C 94% 1.0 mph NNE1.6 kmh NNE 3.3 mph5.3 kmh 29.76 in1007.8 mb 0.00 in0.0 mm 0.00 in0.0 mm 0.02 in0.5 mm
02:53 AM 41.2°F5.1°C 39.3°F4.1°C 93% 0.9 mph NNE1.4 kmh NNE 3.3 mph5.3 kmh 29.76 in1007.8 mb 0.00 in0.0 mm 0.00 in0.0 mm 0.02 in0.5 mm
02:48 AM 41.2°F5.1°C 39.3°F4.1°C 93% 0.5 mph 0.8 kmh 2.7 mph4.3 kmh 29.76 in1007.8 mb 0.00 in0.0 mm 0.00 in0.0 mm 0.02 in0.5 mm
02:43 AM 41.4°F5.2°C 39.5°F4.2°C 93% 1.3 mph 2.1 kmh 2.7 mph4.3 kmh 29.76 in1007.8 mb 0.00 in0.0 mm 0.00 in0.0 mm 0.02 in0.5 mm
02:38 AM 41.4°F5.2°C 39.5°F4.2°C 93% 1.0 mph 1.6 kmh 3.0 mph4.8 kmh 29.77 in1008.1 mb 0.00 in0.0 mm 0.00 in0.0 mm 0.02 in0.5 mm
02:33 AM 41.4°F5.2°C 39.5°F4.2°C 93% 1.5 mph 2.4 kmh 4.1 mph6.6 kmh 29.77 in1008.1 mb 0.00 in0.0 mm 0.00 in0.0 mm 0.02 in0.5 mm
02:28 AM 41.4°F5.2°C 39.5°F4.2°C 93% 1.6 mph N2.6 kmh N 4.1 mph6.6 kmh 29.78 in1008.5 mb 0.00 in0.0 mm 0.00 in0.0 mm 0.02 in0.5 mm
02:23 AM 41.4°F5.2°C 39.5°F4.2°C 93% 1.8 mph NE2.9 kmh NE 3.8 mph6.1 kmh 29.78 in1008.5 mb 0.00 in0.0 mm 0.00 in0.0 mm 0.02 in0.5 mm
02:18 AM 41.4°F5.2°C 39.5°F4.2°C 93% 0.8 mph NNE1.3 kmh NNE 1.9 mph3.1 kmh 29.78 in1008.5 mb 0.00 in0.0 mm 0.00 in0.0 mm 0.02 in0.5 mm
02:13 AM 41.4°F5.2°C 39.5°F4.2°C 93% Calm Calm 1.7 mph2.7 kmh 29.78 in1008.5 mb 0.00 in0.0 mm 0.00 in0.0 mm 0.02 in0.5 mm
02:08 AM 41.4°F5.2°C 39.5°F4.2°C 93% 0.9 mph 1.4 kmh 2.4 mph3.9 kmh 29.78 in1008.5 mb 0.00 in0.0 mm 0.00 in0.0 mm 0.02 in0.5 mm
02:03 AM 41.4°F5.2°C 39.5°F4.2°C 93% 0.4 mph 0.6 kmh 2.4 mph3.9 kmh 29.78 in1008.5 mb 0.00 in0.0 mm 0.00 in0.0 mm 0.02 in0.5 mm
01:57 AM 41.4°F5.2°C 39.5°F4.2°C 93% 0.4 mph 0.6 kmh 1.9 mph3.1 kmh 29.78 in1008.5 mb 0.00 in0.0 mm 0.00 in0.0 mm 0.02 in0.5 mm
01:52 AM 41.4°F5.2°C 39.5°F4.2°C 93% 0.5 mph 0.8 kmh 2.4 mph3.9 kmh 29.78 in1008.5 mb 0.00 in0.0 mm 0.00 in0.0 mm 0.02 in0.5 mm
01:47 AM 41.4°F5.2°C 39.5°F4.2°C 93% 0.8 mph 1.3 kmh 2.7 mph4.3 kmh 29.78 in1008.5 mb 0.00 in0.0 mm 0.00 in0.0 mm 0.02 in0.5 mm
01:42 AM 41.4°F5.2°C 39.5°F4.2°C 93% 0.9 mph NNW1.4 kmh NNW 3.3 mph5.3 kmh 29.78 in1008.5 mb 0.00 in0.0 mm 0.00 in0.0 mm 0.02 in0.5 mm
01:37 AM 41.4°F5.2°C 39.5°F4.2°C 93% 1.3 mph NNW2.1 kmh NNW 3.3 mph5.3 kmh 29.78 in1008.5 mb 0.00 in0.0 mm 0.00 in0.0 mm 0.02 in0.5 mm
01:32 AM 41.4°F5.2°C 39.5°F4.2°C 93% 1.4 mph 2.3 kmh 1.9 mph3.1 kmh 29.78 in1008.5 mb 0.00 in0.0 mm 0.00 in0.0 mm 0.02 in0.5 mm
01:27 AM 41.4°F5.2°C 39.5°F4.2°C 93% 1.2 mph 1.9 kmh 1.7 mph2.7 kmh 29.79 in1008.8 mb 0.00 in0.0 mm 0.00 in0.0 mm 0.02 in0.5 mm
01:22 AM 41.4°F5.2°C 39.5°F4.2°C 93% 0.5 mph 0.8 kmh 1.3 mph2.1 kmh 29.79 in1008.8 mb 0.00 in0.0 mm 0.00 in0.0 mm 0.02 in0.5 mm
01:17 AM 41.4°F5.2°C 39.5°F4.2°C 93% 0.3 mph NNE0.5 kmh NNE 1.7 mph2.7 kmh 29.79 in1008.8 mb 0.00 in0.0 mm 0.00 in0.0 mm 0.02 in0.5 mm
01:12 AM 41.4°F5.2°C 39.5°F4.2°C 93% 1.2 mph N1.9 kmh N 1.7 mph2.7 kmh 29.79 in1008.8 mb 0.02 in0.5 mm 0.00 in0.0 mm 0.02 in0.5 mm
01:06 AM 41.4°F5.2°C 39.5°F4.2°C 93% 0.5 mph 0.8 kmh 1.7 mph2.7 kmh 29.79 in1008.8 mb 0.02 in0.5 mm 0.00 in0.0 mm 0.02 in0.5 mm
01:01 AM 41.4°F5.2°C 39.5°F4.2°C 93% 1.4 mph 2.3 kmh 1.7 mph2.7 kmh 29.80 in1009.1 mb 0.02 in0.5 mm 0.00 in0.0 mm 0.02 in0.5 mm
12:56 AM 41.4°F5.2°C 39.5°F4.2°C 93% Calm Calm 1.7 mph2.7 kmh 29.80 in1009.1 mb 0.02 in0.5 mm 0.00 in0.0 mm 0.02 in0.5 mm
12:51 AM 41.4°F5.2°C 39.5°F4.2°C 93% Calm Calm 1.7 mph2.7 kmh 29.80 in1009.1 mb 0.02 in0.5 mm 0.00 in0.0 mm 0.02 in0.5 mm
12:46 AM 41.4°F5.2°C 39.5°F4.2°C 93% Calm Calm 1.9 mph3.1 kmh 29.80 in1009.1 mb 0.02 in0.5 mm 0.00 in0.0 mm 0.02 in0.5 mm
12:41 AM 41.4°F5.2°C 39.5°F4.2°C 93% 0.6 mph 1.0 kmh 3.3 mph5.3 kmh 29.80 in1009.1 mb 0.02 in0.5 mm 0.00 in0.0 mm 0.02 in0.5 mm
12:36 AM 41.4°F5.2°C 39.5°F4.2°C 93% 1.9 mph 3.1 kmh 3.3 mph5.3 kmh 29.80 in1009.1 mb 0.02 in0.5 mm 0.00 in0.0 mm 0.02 in0.5 mm
12:31 AM 41.4°F5.2°C 39.5°F4.2°C 93% 1.0 mph 1.6 kmh 2.7 mph4.3 kmh 29.80 in1009.1 mb 0.02 in0.5 mm 0.00 in0.0 mm 0.02 in0.5 mm
12:26 AM 41.4°F5.2°C 39.5°F4.2°C 93% 1.0 mph NNW1.6 kmh NNW 2.7 mph4.3 kmh 29.81 in1009.5 mb 0.02 in0.5 mm 0.00 in0.0 mm 0.02 in0.5 mm
12:21 AM 41.4°F5.2°C 39.5°F4.2°C 93% 1.3 mph ENE2.1 kmh ENE 3.0 mph4.8 kmh 29.81 in1009.5 mb 0.02 in0.5 mm 0.00 in0.0 mm 0.02 in0.5 mm
12:16 AM 41.4°F5.2°C 39.5°F4.2°C 93% 1.2 mph ESE1.9 kmh ESE 3.0 mph4.8 kmh 29.82 in1009.8 mb 0.02 in0.5 mm 0.24 in6.1 mm 0.02 in0.5 mm
12:11 AM 41.4°F5.2°C 39.5°F4.2°C 93% 0.8 mph 1.3 kmh 1.7 mph2.7 kmh 29.81 in1009.5 mb 0.00 in0.0 mm 0.00 in0.0 mm 0.00 in0.0 mm
12:06 AM 41.4°F5.2°C 39.5°F4.2°C 93% 0.5 mph 0.8 kmh 1.7 mph2.7 kmh 29.82 in1009.8 mb 0.00 in0.0 mm 0.00 in0.0 mm 0.00 in0.0 mm
12:01 AM 41.4°F5.2°C 39.5°F4.2°C 93% 0.3 mph 0.5 kmh 2.7 mph4.3 kmh 29.82 in1009.8 mb 0.00 in0.0 mm 0.00 in0.0 mm 0.00 in0.0 mm